KLUA

Luray Caverns Airport

Luray, Virginia, USA
METAR KLUA 190535Z AUTO 00000KT 10SM CLR 18/17 A2994 RMK AO2
Observed Flight Rules
Sep-19 @ 05:35 UTC (21 minutes ago) Visual Flight Rules
Visibility Clouds
10 miles
  • Clear skies
Temperatures Readings
Current 18°C / 64°F
Dewpoint 17°C / 63°F
Humidity 94%
Altimeter 29.94" Hg
Pressure 1014 hPa
Elevation 275
METAR KLUA 190535Z AUTO 00000KT 10SM CLR 18/17 A2994 RMK AO2
Observed Flight Rules
Sep-19 @ 05:35 UTC
(21 minutes ago)
VFR
Clouds
  • Clear skies
Temperature Dewpoint
18°C / 64°F 17°C / 63°F
Humidity Altimeter Pressure
94% 29.94" Hg 1014 hPa